createdAt,value
2023-02-01T00:01:35.577Z,102163.78
2023-02-01T00:04:05.755Z,102164.72
2023-02-01T00:06:34.249Z,102163.03
2023-02-01T00:09:03.282Z,102171.06
2023-02-01T00:11:32.280Z,102165.78
2023-02-01T00:14:00.823Z,102171.09
2023-02-01T00:16:31.077Z,102165.13
2023-02-01T00:19:02.412Z,102151.59
2023-02-01T00:21:32.752Z,102166.28
2023-02-01T00:24:01.770Z,102164.56
2023-02-01T00:26:34.080Z,102163.75
2023-02-01T00:29:03.467Z,102159.50
2023-02-01T00:31:32.354Z,102160.53
2023-02-01T00:34:01.245Z,102156.16
2023-02-01T00:36:30.464Z,102154.59
2023-02-01T00:39:00.390Z,102158.31
2023-02-01T00:41:29.145Z,102145.25
2023-02-01T00:43:57.688Z,102139.88
2023-02-01T00:46:26.618Z,102146.31
2023-02-01T00:48:55.562Z,102157.09
2023-02-01T00:51:27.261Z,102152.84
2023-02-01T00:53:59.417Z,102152.22
2023-02-01T00:56:29.577Z,102155.06
2023-02-01T00:58:58.293Z,102153.38
2023-02-01T01:01:28.666Z,102148.91
2023-02-01T01:03:58.942Z,102144.75
2023-02-01T01:06:29.869Z,102150.22
2023-02-01T01:09:01.800Z,102146.53
2023-02-01T01:11:33.096Z,102147.19
2023-02-01T01:14:02.555Z,102140.25
2023-02-01T01:16:33.829Z,102140.53
2023-02-01T01:19:03.242Z,102141.72
2023-02-01T01:21:32.602Z,102110.22
2023-02-01T01:24:02.720Z,102148.00
2023-02-01T01:26:32.526Z,102141.16
2023-02-01T01:29:02.046Z,102128.41
2023-02-01T01:31:31.136Z,102149.16
2023-02-01T01:34:01.518Z,102105.13
2023-02-01T01:36:32.119Z,102109.53
2023-02-01T01:39:00.854Z,102149.38
2023-02-01T01:41:33.735Z,102142.44
2023-02-01T01:44:43.406Z,102148.78
2023-02-01T01:47:12.420Z,102141.16
2023-02-01T01:49:41.090Z,102144.59
2023-02-01T01:52:09.985Z,102153.50
2023-02-01T01:54:43.118Z,102154.59
2023-02-01T01:57:16.677Z,102145.97
2023-02-01T01:59:51.308Z,102146.03
2023-02-01T02:02:20.499Z,102144.53
2023-02-01T02:04:49.869Z,102147.09
2023-02-01T02:07:23.750Z,102150.72
2023-02-01T02:10:00.553Z,102159.50
2023-02-01T02:12:31.367Z,102129.28
2023-02-01T02:15:00.233Z,102157.94
2023-02-01T02:17:37.382Z,102153.72
2023-02-01T02:20:38.665Z,102155.69
2023-02-01T02:23:39.840Z,102143.53
2023-02-01T02:26:27.701Z,102147.13
2023-02-01T02:29:26.768Z,102140.91
2023-02-01T02:32:19.112Z,102143.63
2023-02-01T02:34:54.808Z,102136.91
2023-02-01T02:37:31.535Z,102151.59
2023-02-01T02:40:10.167Z,102145.63
2023-02-01T02:43:03.324Z,102144.88
2023-02-01T02:45:58.441Z,102138.06
2023-02-01T02:48:33.134Z,102136.16
2023-02-01T02:51:25.039Z,102127.44
2023-02-01T02:54:30.754Z,102129.16
2023-02-01T02:57:20.951Z,102127.66
2023-02-01T03:00:08.150Z,102131.97
2023-02-01T03:02:55.155Z,102130.44
2023-02-01T03:05:23.810Z,102130.53
2023-02-01T03:08:04.262Z,102128.72
2023-02-01T03:10:44.292Z,102115.91
2023-02-01T03:13:15.989Z,102126.38
2023-02-01T03:15:51.820Z,102109.13
2023-02-01T03:18:27.730Z,102112.41
2023-02-01T03:20:59.288Z,102119.50
2023-02-01T03:23:33.712Z,102114.09
2023-02-01T03:26:04.200Z,102124.59
2023-02-01T03:28:36.385Z,102132.56
2023-02-01T03:31:05.633Z,102128.22
2023-02-01T03:33:34.857Z,102138.06
2023-02-01T03:36:13.532Z,102134.69
2023-02-01T03:38:50.907Z,102138.38
2023-02-01T03:41:28.735Z,102135.84
2023-02-01T03:44:02.294Z,102139.31
2023-02-01T03:46:35.824Z,102144.50
2023-02-01T03:49:09.405Z,102150.75
2023-02-01T03:51:42.617Z,102141.19
2023-02-01T03:54:17.560Z,102147.22
2023-02-01T03:56:48.530Z,102148.81
2023-02-01T03:59:17.372Z,102139.94
2023-02-01T04:01:45.796Z,102143.41
2023-02-01T04:04:21.562Z,102146.91
2023-02-01T04:06:54.340Z,102143.31
2023-02-01T04:09:25.440Z,102137.81
2023-02-01T04:11:54.084Z,102141.19
2023-02-01T04:14:23.122Z,102145.47
2023-02-01T04:16:51.809Z,102146.59
2023-02-01T04:19:20.929Z,102146.94
2023-02-01T04:21:49.413Z,102150.41
2023-02-01T04:24:17.960Z,102154.69
2023-02-01T04:26:48.038Z,102146.91
2023-02-01T04:29:16.651Z,102147.13
2023-02-01T04:31:45.301Z,102145.50
2023-02-01T04:34:13.810Z,102152.50
2023-02-01T04:36:42.354Z,102151.78
2023-02-01T04:39:11.513Z,102150.97
2023-02-01T04:41:40.096Z,102156.38
2023-02-01T04:44:16.302Z,102150.44
2023-02-01T04:46:45.162Z,102150.44
2023-02-01T04:49:14.857Z,102155.69
2023-02-01T04:51:43.870Z,102154.84
2023-02-01T04:54:13.631Z,102156.66
2023-02-01T04:56:42.651Z,102133.28
2023-02-01T04:59:14.380Z,102151.38
2023-02-01T05:01:49.833Z,102153.25
2023-02-01T05:04:24.313Z,102152.59
2023-02-01T05:06:53.010Z,102146.34
2023-02-01T05:09:22.901Z,102146.38
2023-02-01T05:12:08.866Z,102138.53
2023-02-01T05:14:38.842Z,102131.44
2023-02-01T05:17:07.331Z,102138.28
2023-02-01T05:19:35.839Z,102132.91
2023-02-01T05:22:04.345Z,102136.34
2023-02-01T05:24:32.879Z,102136.47
2023-02-01T05:27:01.642Z,102139.19
2023-02-01T05:29:30.390Z,102134.88
2023-02-01T05:32:08.422Z,102143.84
2023-02-01T05:34:43.895Z,102147.47
2023-02-01T05:37:12.385Z,102150.09
2023-02-01T05:39:41.070Z,102146.56
2023-02-01T05:42:09.564Z,102145.66
2023-02-01T05:44:38.038Z,102148.38
2023-02-01T05:47:08.001Z,102139.63
2023-02-01T05:49:36.786Z,102141.78
2023-02-01T05:52:05.523Z,102140.78
2023-02-01T05:54:34.235Z,102147.22
2023-02-01T05:57:02.811Z,102146.50
2023-02-01T05:59:31.601Z,102148.28
2023-02-01T06:02:00.224Z,102147.41
2023-02-01T06:04:30.238Z,102147.38
2023-02-01T06:06:58.803Z,102154.63
2023-02-01T06:09:27.403Z,102159.16
2023-02-01T06:11:56.033Z,102147.69
2023-02-01T06:14:24.901Z,102145.22
2023-02-01T06:16:53.432Z,102154.75
2023-02-01T06:19:22.762Z,102162.56
2023-02-01T06:21:52.647Z,102164.34
2023-02-01T06:24:21.766Z,102174.16
2023-02-01T06:26:50.407Z,102172.59
2023-02-01T06:29:19.156Z,102191.03
2023-02-01T06:31:48.710Z,102187.53
2023-02-01T06:34:17.355Z,102181.28
2023-02-01T06:36:45.831Z,102182.97
2023-02-01T06:39:17.245Z,102183.75
2023-02-01T06:41:48.724Z,102181.13
2023-02-01T06:44:17.791Z,102183.00
2023-02-01T06:46:46.268Z,102186.41
2023-02-01T06:49:14.932Z,102188.28
2023-02-01T06:51:43.545Z,102190.19
2023-02-01T06:54:12.051Z,102194.63
2023-02-01T06:56:41.925Z,102180.63
2023-02-01T06:59:10.937Z,102183.16
2023-02-01T07:01:39.450Z,102178.56
2023-02-01T07:04:08.214Z,102168.66
2023-02-01T07:06:36.612Z,102170.03
2023-02-01T07:09:05.258Z,102165.41
2023-02-01T07:11:33.823Z,102167.91
2023-02-01T07:14:03.742Z,102167.81
2023-02-01T07:16:32.419Z,102173.09
2023-02-01T07:19:01.221Z,102164.47
2023-02-01T07:21:29.850Z,102160.44
2023-02-01T07:23:58.464Z,102170.31
2023-02-01T07:26:26.975Z,102164.97
2023-02-01T07:28:55.649Z,102162.22
2023-02-01T07:31:27.747Z,102173.38
2023-02-01T07:33:58.742Z,102181.41
2023-02-01T07:36:27.431Z,102190.13
2023-02-01T07:38:56.886Z,102198.00
2023-02-01T07:41:25.775Z,102200.34
2023-02-01T07:43:55.257Z,102196.41
2023-02-01T07:46:25.294Z,102194.28
2023-02-01T07:48:53.825Z,102189.44
2023-02-01T07:51:22.393Z,102194.38
2023-02-01T07:53:50.936Z,102191.59
2023-02-01T07:56:21.783Z,102192.19
2023-02-01T07:58:50.824Z,102189.59
2023-02-01T08:01:22.717Z,102196.13
2023-02-01T08:03:54.509Z,102196.63
2023-02-01T08:06:24.322Z,102187.50
2023-02-01T08:08:55.222Z,102195.13
2023-02-01T08:11:25.550Z,102205.03
2023-02-01T08:13:54.637Z,102209.69
2023-02-01T08:16:24.613Z,102212.84
2023-02-01T08:18:55.316Z,102211.63
2023-02-01T08:21:26.359Z,102212.84
2023-02-01T08:23:57.370Z,102198.97
2023-02-01T08:26:27.971Z,102206.84
2023-02-01T08:28:59.161Z,102232.44
2023-02-01T08:31:29.446Z,102229.22
2023-02-01T08:34:01.556Z,102224.09
2023-02-01T08:36:31.709Z,102218.66
2023-02-01T08:39:00.677Z,102230.16
2023-02-01T08:41:31.993Z,102196.28
2023-02-01T08:44:00.904Z,102228.78
2023-02-01T08:46:29.447Z,102227.28
2023-02-01T08:48:59.839Z,102220.59
2023-02-01T08:51:28.412Z,102230.47
2023-02-01T08:53:56.885Z,102225.91
2023-02-01T08:56:25.443Z,102227.78
2023-02-01T08:58:54.179Z,102240.78
2023-02-01T09:01:22.650Z,102240.59
2023-02-01T09:03:51.310Z,102244.00
2023-02-01T09:06:21.461Z,102236.44
2023-02-01T09:08:49.937Z,102247.59
2023-02-01T09:11:21.567Z,102213.84
2023-02-01T09:13:50.902Z,102230.44
2023-02-01T09:16:21.508Z,102259.47
2023-02-01T09:19:01.631Z,102261.03
2023-02-01T09:21:40.263Z,102260.50
2023-02-01T09:24:09.898Z,102253.75
2023-02-01T09:26:38.932Z,102253.16
2023-02-01T09:29:12.383Z,102251.25
2023-02-01T09:31:49.851Z,102258.09
2023-02-01T09:34:22.780Z,102250.22
2023-02-01T09:36:52.736Z,102255.78
2023-02-01T09:39:21.964Z,102261.75
2023-02-01T09:41:59.647Z,102270.31
2023-02-01T09:44:46.951Z,102265.31
2023-02-01T09:47:18.030Z,102271.81
2023-02-01T09:49:53.962Z,102273.78
2023-02-01T09:52:30.806Z,102244.53
2023-02-01T09:55:03.968Z,102272.28
2023-02-01T09:57:44.358Z,102270.50
2023-02-01T10:00:23.183Z,102251.38
2023-02-01T10:02:52.689Z,102264.75
2023-02-01T10:05:30.263Z,102266.47
2023-02-01T10:08:06.908Z,102252.69
2023-02-01T10:10:41.128Z,102168.81
2023-02-01T10:13:26.436Z,102247.81
2023-02-01T10:16:20.296Z,102258.09
2023-02-01T10:19:04.387Z,102263.13
2023-02-01T10:21:49.978Z,102261.81
2023-02-01T10:24:37.306Z,102263.66
2023-02-01T10:27:15.359Z,102248.91
2023-02-01T10:29:47.050Z,102252.69
2023-02-01T10:32:17.840Z,102246.00
2023-02-01T10:34:52.270Z,102231.97
2023-02-01T10:37:27.833Z,102234.34
2023-02-01T10:40:00.012Z,102225.81
2023-02-01T10:42:30.989Z,102221.56
2023-02-01T10:45:02.712Z,102235.94
2023-02-01T10:47:31.291Z,102228.25
2023-02-01T10:50:16.937Z,102217.34
2023-02-01T10:52:50.663Z,102222.53
2023-02-01T10:55:35.012Z,102215.66
2023-02-01T10:58:05.990Z,102214.06
2023-02-01T11:00:47.834Z,102219.75
2023-02-01T11:03:38.716Z,102224.44
2023-02-01T11:06:20.196Z,102217.28
2023-02-01T11:08:51.265Z,102219.41
2023-02-01T11:11:22.341Z,102205.78
2023-02-01T11:13:57.099Z,102207.91
2023-02-01T11:16:33.430Z,102220.09
2023-02-01T11:19:02.390Z,102213.50
2023-02-01T11:21:31.191Z,102211.97
2023-02-01T11:24:04.435Z,102212.91
2023-02-01T11:26:35.097Z,102213.78
2023-02-01T11:29:07.618Z,102217.72
2023-02-01T11:31:37.427Z,102214.25
2023-02-01T11:34:11.541Z,102173.78
2023-02-01T11:36:42.528Z,102215.63
2023-02-01T11:39:21.987Z,102211.50
2023-02-01T11:42:06.092Z,102198.63
2023-02-01T11:44:37.732Z,102192.91
2023-02-01T11:47:27.751Z,102174.84
2023-02-01T11:49:58.248Z,102183.81
2023-02-01T11:52:46.548Z,102183.56
2023-02-01T11:55:55.089Z,102184.19
2023-02-01T11:59:10.658Z,102177.84
2023-02-01T12:02:06.244Z,102174.81
2023-02-01T12:05:04.167Z,102163.84
2023-02-01T12:07:50.923Z,102154.94
2023-02-01T12:10:31.307Z,102144.81
2023-02-01T12:13:21.265Z,102136.19
2023-02-01T12:16:04.769Z,102143.09
2023-02-01T12:18:44.291Z,102125.91
2023-02-01T12:21:30.891Z,102125.31
2023-02-01T12:24:19.253Z,102118.09
2023-02-01T12:26:57.136Z,102107.97
2023-02-01T12:29:59.369Z,102105.19
2023-02-01T12:32:53.859Z,102105.78
2023-02-01T12:35:41.092Z,102099.94
2023-02-01T12:38:32.154Z,102093.59
2023-02-01T12:41:16.000Z,102087.50
2023-02-01T12:43:49.340Z,102101.03
2023-02-01T12:46:23.814Z,102056.81
2023-02-01T12:49:00.098Z,102092.13
2023-02-01T12:51:31.955Z,102083.34
2023-02-01T12:54:06.918Z,102083.84
2023-02-01T12:56:39.613Z,102072.13
2023-02-01T12:59:18.400Z,102068.97
2023-02-01T13:01:53.551Z,102065.06
2023-02-01T13:04:29.525Z,102068.59
2023-02-01T13:07:06.704Z,102060.28
2023-02-01T13:09:41.974Z,102053.94
2023-02-01T13:12:16.341Z,102057.97
2023-02-01T13:14:51.586Z,102051.06
2023-02-01T13:17:25.812Z,102046.44
2023-02-01T13:19:59.867Z,102055.69
2023-02-01T13:22:34.220Z,102033.13
2023-02-01T13:25:07.332Z,102040.78
2023-02-01T13:27:36.222Z,102027.97
2023-02-01T13:30:11.015Z,102033.47
2023-02-01T13:33:53.108Z,102036.88
2023-02-01T13:36:25.294Z,102028.84
2023-02-01T13:39:21.645Z,102027.16
2023-02-01T13:41:57.253Z,102018.13
2023-02-01T13:44:33.236Z,102017.88
2023-02-01T13:47:04.711Z,102020.16
2023-02-01T13:49:39.714Z,102007.72
2023-02-01T13:52:27.392Z,102008.81
2023-02-01T13:55:18.030Z,102009.81
2023-02-01T13:57:47.099Z,102005.28
2023-02-01T14:00:32.247Z,102011.50
2023-02-01T14:03:16.967Z,102009.81
2023-02-01T14:06:38.377Z,102014.06
2023-02-01T14:09:34.623Z,102007.84
2023-02-01T14:12:36.055Z,102009.44
2023-02-01T14:15:25.223Z,101994.22
2023-02-01T14:17:54.379Z,102016.13
2023-02-01T14:20:52.054Z,102015.25
2023-02-01T14:23:24.737Z,102021.75
2023-02-01T14:26:26.531Z,102016.63
2023-02-01T14:29:03.744Z,102030.34
2023-02-01T14:31:44.508Z,102026.38
2023-02-01T14:34:24.347Z,102028.81
2023-02-01T14:36:58.389Z,102027.97
2023-02-01T14:39:34.859Z,102025.00
2023-02-01T14:42:13.908Z,102023.44
2023-02-01T14:44:58.938Z,102021.00
2023-02-01T14:47:32.018Z,102022.00
2023-02-01T14:50:17.801Z,102021.13
2023-02-01T14:52:49.649Z,102021.28
2023-02-01T14:55:23.382Z,102024.69
2023-02-01T14:57:57.593Z,102024.81
2023-02-01T15:00:28.400Z,102015.56
2023-02-01T15:03:13.908Z,102023.22
2023-02-01T15:05:42.488Z,102013.13
2023-02-01T15:08:20.262Z,102013.25
2023-02-01T15:10:52.735Z,102007.75
2023-02-01T15:13:24.543Z,101997.34
2023-02-01T15:16:03.785Z,102007.03
2023-02-01T15:18:32.694Z,102011.50
2023-02-01T15:21:09.512Z,101983.50
2023-02-01T15:23:52.206Z,101997.97
2023-02-01T15:26:29.232Z,102011.41
2023-02-01T15:29:00.939Z,102013.34
2023-02-01T15:31:36.088Z,102007.50
2023-02-01T15:34:05.372Z,102008.50
2023-02-01T15:36:34.904Z,101999.00
2023-02-01T15:39:26.899Z,102002.66
2023-02-01T15:41:58.353Z,101983.22
2023-02-01T15:44:36.057Z,102007.81
2023-02-01T15:47:11.467Z,102013.81
2023-02-01T15:49:42.848Z,102017.47
2023-02-01T15:52:23.885Z,102020.50
2023-02-01T15:54:55.085Z,102016.88
2023-02-01T15:57:31.533Z,101994.94
2023-02-01T16:00:05.658Z,102022.47
2023-02-01T16:02:45.917Z,102031.13
2023-02-01T16:05:33.416Z,102037.56
2023-02-01T16:08:06.189Z,102039.88
2023-02-01T16:10:42.118Z,102033.22
2023-02-01T16:13:11.088Z,102042.34
2023-02-01T16:15:41.671Z,102056.00
2023-02-01T16:18:14.088Z,102054.03
2023-02-01T16:20:44.916Z,102053.16
2023-02-01T16:23:13.860Z,102055.47
2023-02-01T16:25:42.799Z,102049.13
2023-02-01T16:28:11.489Z,102050.22
2023-02-01T16:31:05.844Z,102071.50
2023-02-01T16:33:44.909Z,102069.66
2023-02-01T16:36:14.770Z,102073.63
2023-02-01T16:38:43.260Z,102068.75
2023-02-01T16:41:15.859Z,102078.97
2023-02-01T16:43:45.862Z,102078.47
2023-02-01T16:46:21.605Z,102077.53
2023-02-01T16:48:54.109Z,102092.34
2023-02-01T16:51:22.825Z,102099.22
2023-02-01T16:53:54.512Z,102093.56
2023-02-01T16:56:31.096Z,102096.06
2023-02-01T16:58:59.913Z,102105.50
2023-02-01T17:01:40.428Z,102107.03
2023-02-01T17:04:09.318Z,102107.56
2023-02-01T17:06:39.029Z,102118.59
2023-02-01T17:09:08.360Z,102113.16
2023-02-01T17:11:38.848Z,102124.41
2023-02-01T17:14:17.748Z,102132.94
2023-02-01T17:16:49.720Z,102132.53
2023-02-01T17:19:21.252Z,102131.25
2023-02-01T17:21:52.886Z,102129.00
2023-02-01T17:24:25.937Z,102133.06
2023-02-01T17:26:55.755Z,102139.25
2023-02-01T17:29:25.069Z,102143.19
2023-02-01T17:31:58.655Z,102155.56
2023-02-01T17:34:27.838Z,102160.03
2023-02-01T17:36:56.918Z,102161.28
2023-02-01T17:39:42.742Z,102164.41
2023-02-01T17:42:13.639Z,102168.47
2023-02-01T17:44:42.355Z,102174.00
2023-02-01T17:47:12.329Z,102171.44
2023-02-01T17:49:41.110Z,102177.16
2023-02-01T17:52:16.255Z,102180.03
2023-02-01T17:54:45.132Z,102182.03
2023-02-01T17:57:14.576Z,102154.56
2023-02-01T17:59:43.251Z,102180.22
2023-02-01T18:02:20.614Z,102183.00
2023-02-01T18:04:50.357Z,102185.84
2023-02-01T18:07:19.707Z,102194.94
2023-02-01T18:09:48.473Z,102195.22
2023-02-01T18:12:25.863Z,102194.38
2023-02-01T18:14:58.713Z,102203.63
2023-02-01T18:17:29.002Z,102204.84
2023-02-01T18:19:59.963Z,102215.63
2023-02-01T18:22:34.839Z,102220.00
2023-02-01T18:25:14.346Z,102225.44
2023-02-01T18:27:42.988Z,102227.34
2023-02-01T18:30:13.052Z,102207.66
2023-02-01T18:32:43.827Z,102195.19
2023-02-01T18:35:21.750Z,102225.56
2023-02-01T18:37:51.539Z,102227.66
2023-02-01T18:40:22.685Z,102225.16
2023-02-01T18:42:51.583Z,102221.81
2023-02-01T18:45:31.875Z,102219.44
2023-02-01T18:48:02.231Z,102221.56
2023-02-01T18:50:33.895Z,102173.69
2023-02-01T18:53:04.446Z,102226.50
2023-02-01T18:55:33.730Z,102230.03
2023-02-01T18:58:03.016Z,102233.53
2023-02-01T19:00:31.730Z,102235.44
2023-02-01T19:03:04.842Z,102231.91
2023-02-01T19:05:33.577Z,102236.56
2023-02-01T19:08:04.140Z,102235.63
2023-02-01T19:10:39.927Z,102240.19
2023-02-01T19:13:13.539Z,102236.75
2023-02-01T19:15:42.708Z,102233.50
2023-02-01T19:18:12.745Z,102238.16
2023-02-01T19:20:48.526Z,102237.53
2023-02-01T19:23:22.236Z,102243.31
2023-02-01T19:25:56.644Z,102240.81
2023-02-01T19:28:28.085Z,102241.84
2023-02-01T19:31:05.983Z,102242.53
2023-02-01T19:33:40.350Z,102237.38
2023-02-01T19:36:14.521Z,102241.19
2023-02-01T19:38:47.882Z,102251.81
2023-02-01T19:41:17.114Z,102248.56
2023-02-01T19:43:46.000Z,102259.41
2023-02-01T19:46:14.689Z,102260.56
2023-02-01T19:48:44.683Z,102265.97
2023-02-01T19:51:13.232Z,102266.91
2023-02-01T19:53:41.642Z,102254.22
2023-02-01T19:56:10.278Z,102248.56
2023-02-01T19:58:38.719Z,102279.47
2023-02-01T20:01:07.363Z,102276.72
2023-02-01T20:03:35.911Z,102286.41
2023-02-01T20:06:07.561Z,102287.63
2023-02-01T20:08:36.110Z,102295.19
2023-02-01T20:11:07.668Z,102297.31
2023-02-01T20:13:38.788Z,102290.84
2023-02-01T20:16:07.861Z,102305.94
2023-02-01T20:18:37.592Z,102303.53
2023-02-01T20:21:07.722Z,102253.41
2023-02-01T20:23:36.847Z,102301.38
2023-02-01T20:26:08.157Z,102303.09
2023-02-01T20:28:37.271Z,102313.22
2023-02-01T20:31:07.309Z,102313.78
2023-02-01T20:33:36.030Z,102311.75
2023-02-01T20:36:05.558Z,102317.16
2023-02-01T20:38:35.797Z,102304.97
2023-02-01T20:41:05.420Z,102309.41
2023-02-01T20:43:34.551Z,102300.91
2023-02-01T20:46:03.493Z,102309.41
2023-02-01T20:48:33.083Z,102309.75
2023-02-01T20:51:01.618Z,102312.41
2023-02-01T20:53:30.621Z,102316.88
2023-02-01T20:56:00.792Z,102314.38
2023-02-01T20:58:29.509Z,102318.66
2023-02-01T21:00:58.518Z,102319.44
2023-02-01T21:03:27.394Z,102317.88
2023-02-01T21:05:57.981Z,102319.94
2023-02-01T21:08:27.610Z,102321.34
2023-02-01T21:11:03.534Z,102328.47
2023-02-01T21:13:36.356Z,102323.59
2023-02-01T21:16:09.850Z,102324.69
2023-02-01T21:18:38.714Z,102324.06
2023-02-01T21:21:07.915Z,102322.50
2023-02-01T21:23:45.179Z,102324.44
2023-02-01T21:26:15.967Z,102327.03
2023-02-01T21:28:44.753Z,102325.06
2023-02-01T21:31:14.205Z,102332.97
2023-02-01T21:33:42.764Z,102334.75
2023-02-01T21:36:19.186Z,102335.63
2023-02-01T21:38:50.155Z,102341.03
2023-02-01T21:41:38.499Z,102327.19
2023-02-01T21:44:07.249Z,102334.38
2023-02-01T21:46:35.873Z,102343.41
2023-02-01T21:49:07.212Z,102342.69
2023-02-01T21:51:38.221Z,102342.13
2023-02-01T21:54:07.319Z,102342.13
2023-02-01T21:56:37.826Z,102343.00
2023-02-01T21:59:06.591Z,102344.88
2023-02-01T22:01:35.456Z,102341.44
2023-02-01T22:04:04.019Z,102347.06
2023-02-01T22:06:35.025Z,102342.06
2023-02-01T22:09:04.145Z,102343.25
2023-02-01T22:11:33.941Z,102347.91
2023-02-01T22:14:04.018Z,102349.84
2023-02-01T22:16:32.669Z,102352.81
2023-02-01T22:19:01.184Z,102352.09
2023-02-01T22:21:29.736Z,102350.84
2023-02-01T22:24:00.332Z,102314.34
2023-02-01T22:26:29.484Z,102344.63
2023-02-01T22:28:58.038Z,102353.06
2023-02-01T22:31:28.205Z,102354.13
2023-02-01T22:33:57.072Z,102352.19
2023-02-01T22:36:26.104Z,102353.72
2023-02-01T22:38:54.739Z,102353.84
2023-02-01T22:41:23.300Z,102355.66
2023-02-01T22:43:52.122Z,102365.06
2023-02-01T22:46:23.015Z,102367.59
2023-02-01T22:48:53.470Z,102372.75
2023-02-01T22:51:24.354Z,102374.69
2023-02-01T22:53:57.177Z,102373.28
2023-02-01T22:56:27.260Z,102373.50
2023-02-01T22:58:57.555Z,102362.72
2023-02-01T23:01:36.524Z,102370.63
2023-02-01T23:04:08.531Z,102369.22
2023-02-01T23:06:37.375Z,102368.34
2023-02-01T23:09:11.914Z,102371.16
2023-02-01T23:11:40.900Z,102365.25
2023-02-01T23:14:11.005Z,102362.47
2023-02-01T23:16:41.261Z,102347.97
2023-02-01T23:19:11.487Z,102366.69
2023-02-01T23:21:40.043Z,102374.59
2023-02-01T23:24:10.956Z,102374.50
2023-02-01T23:26:40.438Z,102372.38
2023-02-01T23:29:08.950Z,102370.06
2023-02-01T23:31:37.626Z,102369.75
2023-02-01T23:34:06.491Z,102362.19
2023-02-01T23:36:36.535Z,102352.78
2023-02-01T23:39:05.192Z,102352.28
2023-02-01T23:41:33.843Z,102348.97
2023-02-01T23:44:02.376Z,102350.06
2023-02-01T23:46:34.236Z,102345.97
2023-02-01T23:49:05.273Z,102351.34
2023-02-01T23:51:37.289Z,102350.63
2023-02-01T23:54:06.181Z,102336.34
2023-02-01T23:56:36.921Z,102351.06
2023-02-01T23:59:07.577Z,102349.84
